createdAt,value
2018-10-21T00:00:49.023Z,74.87
2018-10-21T00:03:18.185Z,75.60
2018-10-21T00:05:47.274Z,75.27
2018-10-21T00:08:15.943Z,65.87
2018-10-21T00:10:45.250Z,76.50
2018-10-21T00:13:14.382Z,68.83
2018-10-21T00:15:43.643Z,78.90
2018-10-21T00:18:12.743Z,66.37
2018-10-21T00:20:41.920Z,75.13
2018-10-21T00:23:11.082Z,69.03
2018-10-21T00:25:40.406Z,63.13
2018-10-21T00:28:09.574Z,71.57
2018-10-21T00:30:38.770Z,62.60
2018-10-21T00:33:07.931Z,74.97
2018-10-21T00:35:37.062Z,69.20
2018-10-21T00:38:06.202Z,71.07
2018-10-21T00:40:35.350Z,61.67
2018-10-21T00:43:04.475Z,71.37
2018-10-21T00:45:33.631Z,76.07
2018-10-21T00:48:02.880Z,71.57
2018-10-21T00:50:32.182Z,71.80
2018-10-21T00:53:01.327Z,64.80
2018-10-21T00:55:30.479Z,69.67
2018-10-21T00:57:59.607Z,79.37
2018-10-21T01:00:28.725Z,68.80
2018-10-21T01:02:58.421Z,71.03
2018-10-21T01:05:27.213Z,81.90
2018-10-21T01:07:56.441Z,78.10
2018-10-21T01:10:25.558Z,72.00
2018-10-21T01:12:54.706Z,65.77
2018-10-21T01:15:23.893Z,73.40
2018-10-21T01:17:53.014Z,78.80
2018-10-21T01:20:22.166Z,60.90
2018-10-21T01:22:51.359Z,71.77
2018-10-21T01:25:20.493Z,68.63
2018-10-21T01:27:50.306Z,86.93
2018-10-21T01:30:19.471Z,96.63
2018-10-21T01:32:49.411Z,104.13
2018-10-21T01:35:18.554Z,105.63
2018-10-21T01:37:48.124Z,104.93
2018-10-21T01:40:36.005Z,106.33
2018-10-21T01:43:06.240Z,108.67
2018-10-21T01:45:35.397Z,96.10
2018-10-21T01:48:05.915Z,93.00
2018-10-21T01:50:35.134Z,122.57
2018-10-21T01:53:05.445Z,102.97
2018-10-21T01:55:34.675Z,130.77
2018-10-21T01:58:03.889Z,114.40
2018-10-21T02:00:33.613Z,102.30
2018-10-21T02:03:03.004Z,97.70
2018-10-21T02:05:32.810Z,134.97
2018-10-21T02:08:02.026Z,135.67
2018-10-21T02:10:31.223Z,132.93
2018-10-21T02:13:00.350Z,128.90
2018-10-21T02:15:29.507Z,136.20
2018-10-21T02:17:59.094Z,100.13
2018-10-21T02:20:28.382Z,116.10
2018-10-21T02:22:57.526Z,86.07
2018-10-21T02:25:29.703Z,116.10
2018-10-21T02:27:58.941Z,107.63
2018-10-21T02:30:29.287Z,90.93
2018-10-21T02:32:59.429Z,104.30
2018-10-21T02:35:28.554Z,93.97
2018-10-21T02:37:58.414Z,97.57
2018-10-21T02:41:44.297Z,153.77
2018-10-21T02:44:19.830Z,130.27
2018-10-21T02:46:49.753Z,84.07
2018-10-21T02:49:19.611Z,76.50
2018-10-21T02:51:53.900Z,102.00
2018-10-21T02:54:26.047Z,112.83
2018-10-21T02:56:55.349Z,82.17
2018-10-21T02:59:24.886Z,138.40
2018-10-21T03:01:54.061Z,109.97
2018-10-21T03:04:23.610Z,119.90
2018-10-21T03:06:53.118Z,130.10
2018-10-21T03:09:22.497Z,114.57
2018-10-21T03:11:51.327Z,111.10
2018-10-21T03:14:20.453Z,92.50
2018-10-21T03:16:49.600Z,105.27
2018-10-21T03:19:18.755Z,117.63
2018-10-21T03:21:47.973Z,91.40
2018-10-21T03:24:17.189Z,100.10
2018-10-21T03:26:46.982Z,98.87
2018-10-21T03:29:16.130Z,89.47
2018-10-21T03:31:45.295Z,102.23
2018-10-21T03:34:14.459Z,101.23
2018-10-21T03:36:43.646Z,89.13
2018-10-21T03:39:12.809Z,111.90
2018-10-21T03:41:41.949Z,112.93
2018-10-21T03:44:11.074Z,99.30
2018-10-21T03:46:40.259Z,120.47
2018-10-21T03:49:09.409Z,113.63
2018-10-21T03:51:38.542Z,86.80
2018-10-21T03:54:07.665Z,114.73
2018-10-21T03:56:37.218Z,125.23
2018-10-21T03:59:06.321Z,89.23
2018-10-21T04:01:35.445Z,98.10
2018-10-21T04:04:04.628Z,103.60
2018-10-21T04:06:34.163Z,138.43
2018-10-21T04:09:03.382Z,84.67
2018-10-21T04:11:32.607Z,103.50
2018-10-21T04:14:02.522Z,87.20
2018-10-21T04:16:31.743Z,102.30
2018-10-21T04:19:00.985Z,101.40
2018-10-21T04:21:30.930Z,90.03
2018-10-21T04:24:00.042Z,60.77
2018-10-21T04:26:29.165Z,97.77
2018-10-21T04:28:58.283Z,70.37
2018-10-21T04:31:27.782Z,83.40
2018-10-21T04:33:56.988Z,68.40
2018-10-21T04:36:31.666Z,59.70
2018-10-21T04:39:43.237Z,51.33
2018-10-21T04:42:12.405Z,89.17
2018-10-21T04:44:41.584Z,60.30
2018-10-21T04:47:10.954Z,105.13
2018-10-21T04:49:40.105Z,72.87
2018-10-21T04:52:09.387Z,72.50
2018-10-21T04:54:38.813Z,70.73
2018-10-21T04:57:08.797Z,82.13
2018-10-21T04:59:39.130Z,70.87
2018-10-21T05:02:08.454Z,72.70
2018-10-21T05:04:37.602Z,59.63
2018-10-21T05:07:07.462Z,60.20
2018-10-21T05:09:36.221Z,63.07
2018-10-21T05:12:06.551Z,78.97
2018-10-21T05:14:34.846Z,72.03
2018-10-21T05:17:04.048Z,80.20
2018-10-21T05:19:33.200Z,63.00
2018-10-21T05:22:02.445Z,54.90
2018-10-21T05:24:31.578Z,53.90
2018-10-21T05:27:00.777Z,56.67
2018-10-21T05:29:30.050Z,47.10
2018-10-21T05:31:59.182Z,48.33
2018-10-21T05:34:28.385Z,46.77
2018-10-21T05:36:57.525Z,43.40
2018-10-21T05:39:26.686Z,42.10
2018-10-21T05:41:55.823Z,44.60
2018-10-21T05:44:24.995Z,44.53
2018-10-21T05:46:54.909Z,44.87
2018-10-21T05:49:23.965Z,46.07
2018-10-21T05:51:53.251Z,47.00
2018-10-21T05:54:22.850Z,45.50
2018-10-21T05:56:52.414Z,44.50
2018-10-21T05:59:21.605Z,42.73
2018-10-21T06:01:50.765Z,42.97
2018-10-21T06:04:19.899Z,42.70
2018-10-21T06:06:49.049Z,42.90
2018-10-21T06:09:18.246Z,44.97
2018-10-21T06:11:47.386Z,40.60
2018-10-21T06:14:16.530Z,40.20
2018-10-21T06:16:50.325Z,39.40
2018-10-21T06:19:27.509Z,39.30
2018-10-21T06:21:56.694Z,37.20
2018-10-21T06:24:25.972Z,40.60
2018-10-21T06:26:57.458Z,41.43
2018-10-21T06:29:33.517Z,37.67
2018-10-21T06:32:02.706Z,34.77
2018-10-21T06:34:31.908Z,39.07
2018-10-21T06:37:01.133Z,40.27
2018-10-21T06:39:30.324Z,39.40
2018-10-21T06:41:59.476Z,40.83
2018-10-21T06:44:29.121Z,39.07
2018-10-21T06:46:58.249Z,37.83
2018-10-21T06:49:27.394Z,38.30
2018-10-21T06:51:56.612Z,36.73
2018-10-21T06:54:25.734Z,37.77
2018-10-21T06:56:55.099Z,36.60
2018-10-21T06:59:24.145Z,35.77
2018-10-21T07:01:53.290Z,39.20
2018-10-21T07:04:22.748Z,33.53
2018-10-21T07:06:52.195Z,35.20
2018-10-21T07:09:21.998Z,33.63
2018-10-21T07:11:52.019Z,35.30
2018-10-21T07:14:20.406Z,33.37
2018-10-21T07:16:50.208Z,32.20
2018-10-21T07:19:20.683Z,28.90
2018-10-21T07:21:50.489Z,28.93
2018-10-21T07:24:19.643Z,30.43
2018-10-21T07:26:48.845Z,31.43
2018-10-21T07:29:17.994Z,30.43
2018-10-21T07:31:47.339Z,28.63
2018-10-21T07:34:16.554Z,27.77
2018-10-21T07:36:45.666Z,28.70
2018-10-21T07:39:14.808Z,27.03
2018-10-21T07:41:44.070Z,25.23
2018-10-21T07:44:13.202Z,25.90
2018-10-21T07:46:42.323Z,28.17
2018-10-21T07:49:11.533Z,28.33
2018-10-21T07:51:40.677Z,26.47
2018-10-21T07:54:10.650Z,26.40
2018-10-21T07:56:41.429Z,26.27
2018-10-21T07:59:10.529Z,28.80
2018-10-21T08:01:40.439Z,27.70
2018-10-21T08:04:10.795Z,25.03
2018-10-21T08:06:56.740Z,28.10
2018-10-21T08:09:25.928Z,26.20
2018-10-21T08:11:55.065Z,27.13
2018-10-21T08:14:24.204Z,28.03
2018-10-21T08:16:53.766Z,25.23
2018-10-21T08:19:22.881Z,25.90
2018-10-21T08:21:52.068Z,27.73
2018-10-21T08:24:21.897Z,27.43
2018-10-21T08:26:51.646Z,28.60
2018-10-21T08:29:20.956Z,31.13
2018-10-21T08:31:50.256Z,29.87
2018-10-21T08:34:19.421Z,30.10
2018-10-21T08:36:48.718Z,31.10
2018-10-21T08:39:17.838Z,30.17
2018-10-21T08:41:47.329Z,31.90
2018-10-21T08:44:16.554Z,32.63
2018-10-21T08:46:45.853Z,28.30
2018-10-21T08:49:15.055Z,28.43
2018-10-21T08:51:44.110Z,31.20
2018-10-21T08:54:13.227Z,28.60
2018-10-21T08:56:42.593Z,25.47
2018-10-21T08:59:11.706Z,27.43
2018-10-21T09:01:40.823Z,28.50
2018-10-21T09:04:10.785Z,29.70
2018-10-21T09:06:39.805Z,30.40
2018-10-21T09:09:10.610Z,28.93
2018-10-21T09:11:40.137Z,29.07
2018-10-21T09:14:10.565Z,31.07
2018-10-21T09:16:39.874Z,30.20
2018-10-21T09:19:09.005Z,28.97
2018-10-21T09:21:38.143Z,26.70
2018-10-21T09:24:07.254Z,26.77
2018-10-21T09:26:36.655Z,25.00
2018-10-21T09:29:06.279Z,24.83
2018-10-21T09:31:35.402Z,23.60
2018-10-21T09:34:04.883Z,23.27
2018-10-21T09:36:34.015Z,24.80
2018-10-21T09:39:03.145Z,22.73
2018-10-21T09:41:32.306Z,23.07
2018-10-21T09:44:01.691Z,24.43
2018-10-21T09:46:30.835Z,23.13
2018-10-21T09:49:00.201Z,24.70
2018-10-21T09:51:30.121Z,24.67
2018-10-21T09:53:59.237Z,23.30
2018-10-21T09:56:28.348Z,24.30
2018-10-21T09:58:57.488Z,24.10
2018-10-21T10:01:31.906Z,24.07
2018-10-21T10:04:01.413Z,22.00
2018-10-21T10:06:30.477Z,21.57
2018-10-21T10:08:59.594Z,23.67
2018-10-21T10:11:29.134Z,20.97
2018-10-21T10:13:58.398Z,22.20
2018-10-21T10:16:27.775Z,20.20
2018-10-21T10:18:56.994Z,20.60
2018-10-21T10:21:26.090Z,23.20
2018-10-21T10:23:56.133Z,19.60
2018-10-21T10:26:25.202Z,22.00
2018-10-21T10:28:54.362Z,20.37
2018-10-21T10:31:23.781Z,19.20
2018-10-21T10:33:52.947Z,19.10
2018-10-21T10:36:22.228Z,19.93
2018-10-21T10:38:51.861Z,18.43
2018-10-21T10:41:21.293Z,19.73
2018-10-21T10:43:50.418Z,20.30
2018-10-21T10:46:19.568Z,19.33
2018-10-21T10:48:48.677Z,20.17
2018-10-21T10:51:17.786Z,17.70
2018-10-21T10:53:47.047Z,16.57
2018-10-21T10:56:16.194Z,16.27
2018-10-21T10:58:45.327Z,16.20
2018-10-21T11:01:14.537Z,14.40
2018-10-21T11:03:43.627Z,15.83
2018-10-21T11:06:13.020Z,13.20
2018-10-21T11:08:42.157Z,12.93
2018-10-21T11:11:11.282Z,14.63
2018-10-21T11:13:40.577Z,12.80
2018-10-21T11:16:10.450Z,14.00
2018-10-21T11:18:39.694Z,11.30
2018-10-21T11:21:14.738Z,10.53
2018-10-21T11:23:43.915Z,9.07
2018-10-21T11:26:13.747Z,9.63
2018-10-21T11:28:42.870Z,9.10
2018-10-21T11:31:12.091Z,8.00
2018-10-21T11:33:41.137Z,8.13
2018-10-21T11:36:10.250Z,6.43
2018-10-21T11:38:40.113Z,6.40
2018-10-21T11:41:09.936Z,6.30
2018-10-21T11:43:39.063Z,6.60
2018-10-21T11:46:08.435Z,5.40
2018-10-21T11:48:38.038Z,7.20
2018-10-21T11:51:07.141Z,6.40
2018-10-21T11:53:36.307Z,5.40
2018-10-21T11:56:05.444Z,7.83
2018-10-21T11:58:34.584Z,6.07
2018-10-21T12:01:04.121Z,5.80
2018-10-21T12:03:33.233Z,5.57
2018-10-21T12:06:02.665Z,4.80
2018-10-21T12:08:32.503Z,5.60
2018-10-21T12:11:01.627Z,5.10
2018-10-21T12:13:30.741Z,5.47
2018-10-21T12:16:00.158Z,4.70
2018-10-21T12:18:29.233Z,5.83
2018-10-21T12:20:58.358Z,4.67
2018-10-21T12:23:27.624Z,4.73
2018-10-21T12:25:56.718Z,3.87
2018-10-21T12:28:25.841Z,4.43
2018-10-21T12:30:55.004Z,4.70
2018-10-21T12:33:24.166Z,4.93
2018-10-21T12:35:53.357Z,3.57
2018-10-21T12:38:22.453Z,3.10
2018-10-21T12:40:51.582Z,3.83
2018-10-21T12:43:20.750Z,3.07
2018-10-21T12:45:50.482Z,3.47
2018-10-21T12:48:19.587Z,3.53
2018-10-21T12:50:48.737Z,2.80
2018-10-21T12:53:17.843Z,3.60
2018-10-21T12:55:50.497Z,3.13
2018-10-21T12:58:19.957Z,2.77
2018-10-21T13:00:49.101Z,3.40
2018-10-21T13:03:18.365Z,3.23
2018-10-21T13:05:47.479Z,3.70
2018-10-21T13:08:19.832Z,2.77
2018-10-21T13:10:48.977Z,3.10
2018-10-21T13:13:18.101Z,2.60
2018-10-21T13:15:46.890Z,3.20
2018-10-21T13:18:16.062Z,2.50
2018-10-21T13:20:45.198Z,3.23
2018-10-21T13:23:14.359Z,3.10
2018-10-21T13:25:43.471Z,2.73
2018-10-21T13:28:12.661Z,3.00
2018-10-21T13:30:42.173Z,2.50
2018-10-21T13:33:11.299Z,2.20
2018-10-21T13:35:40.462Z,2.30
2018-10-21T13:38:09.992Z,2.60
2018-10-21T13:40:39.151Z,2.43
2018-10-21T13:43:08.602Z,2.90
2018-10-21T13:45:37.742Z,3.67
2018-10-21T13:48:07.150Z,3.13
2018-10-21T13:50:36.397Z,2.77
2018-10-21T13:53:05.630Z,2.77
2018-10-21T13:55:34.779Z,2.80
2018-10-21T13:58:04.196Z,2.50
2018-10-21T14:00:33.386Z,2.60
2018-10-21T14:03:02.433Z,2.50
2018-10-21T14:05:31.549Z,3.43
2018-10-21T14:08:00.702Z,3.47
2018-10-21T14:10:29.890Z,3.57
2018-10-21T14:12:59.072Z,4.00
2018-10-21T14:15:29.489Z,2.50
2018-10-21T14:17:58.804Z,2.73
2018-10-21T14:20:27.938Z,2.23
2018-10-21T14:22:57.062Z,3.30
2018-10-21T14:25:27.244Z,2.80
2018-10-21T14:27:56.435Z,2.40
2018-10-21T14:30:25.555Z,2.63
2018-10-21T14:32:54.817Z,3.10
2018-10-21T14:35:23.921Z,3.60
2018-10-21T14:37:53.069Z,2.50
2018-10-21T14:40:22.169Z,2.80
2018-10-21T14:42:51.282Z,2.70
2018-10-21T14:45:20.477Z,2.57
2018-10-21T14:47:51.309Z,3.23
2018-10-21T14:50:20.838Z,2.30
2018-10-21T14:52:49.961Z,2.60
2018-10-21T14:55:19.209Z,3.03
2018-10-21T14:57:48.366Z,3.03
2018-10-21T15:00:17.538Z,3.20
2018-10-21T15:02:46.607Z,3.53
2018-10-21T15:05:16.278Z,2.50
2018-10-21T15:07:46.822Z,3.03
2018-10-21T15:10:16.155Z,3.50
2018-10-21T15:12:45.194Z,2.90
2018-10-21T15:15:14.298Z,2.13
2018-10-21T15:17:43.406Z,3.33
2018-10-21T15:20:13.974Z,2.40
2018-10-21T15:22:44.630Z,2.63
2018-10-21T15:25:13.765Z,2.50
2018-10-21T15:27:42.911Z,2.80
2018-10-21T15:30:12.987Z,2.67
2018-10-21T15:32:42.076Z,2.63
2018-10-21T15:35:11.214Z,2.40
2018-10-21T15:37:41.289Z,1.93
2018-10-21T15:40:11.239Z,2.67
2018-10-21T15:42:40.366Z,2.50
2018-10-21T15:45:10.954Z,2.03
2018-10-21T15:47:40.109Z,2.20
2018-10-21T15:50:09.642Z,2.60
2018-10-21T15:52:38.782Z,2.23
2018-10-21T15:55:08.923Z,3.70
2018-10-21T15:57:38.130Z,3.00
2018-10-21T16:00:10.130Z,3.37
2018-10-21T16:02:39.373Z,2.67
2018-10-21T16:05:09.737Z,3.40
2018-10-21T16:07:38.931Z,3.33
2018-10-21T16:10:09.264Z,3.30
2018-10-21T16:12:38.509Z,3.27
2018-10-21T16:15:11.334Z,3.33
2018-10-21T16:17:40.546Z,2.57
2018-10-21T16:20:09.721Z,2.53
2018-10-21T16:22:41.014Z,3.10
2018-10-21T16:25:12.090Z,2.90
2018-10-21T16:27:41.584Z,2.70
2018-10-21T16:30:13.528Z,2.73
2018-10-21T16:32:43.315Z,2.83
2018-10-21T16:35:13.762Z,3.17
2018-10-21T16:37:43.010Z,4.37
2018-10-21T16:40:15.529Z,4.03
2018-10-21T16:42:45.046Z,3.37
2018-10-21T16:45:14.943Z,4.30
2018-10-21T16:47:44.092Z,4.00
2018-10-21T16:50:15.600Z,4.07
2018-10-21T16:52:45.807Z,4.30
2018-10-21T16:55:15.528Z,5.37
2018-10-21T16:57:44.653Z,5.50
2018-10-21T17:00:16.491Z,4.40
2018-10-21T17:02:45.858Z,4.70
2018-10-21T17:05:15.077Z,6.13
2018-10-21T17:07:44.157Z,5.80
2018-10-21T17:10:13.726Z,4.90
2018-10-21T17:12:42.534Z,6.17
2018-10-21T17:15:12.122Z,4.63
2018-10-21T17:17:42.075Z,5.53
2018-10-21T17:20:13.203Z,5.33
2018-10-21T17:22:43.582Z,4.93
2018-10-21T17:25:13.042Z,5.67
2018-10-21T17:27:42.379Z,5.53
2018-10-21T17:30:18.262Z,5.33
2018-10-21T17:32:47.904Z,6.50
2018-10-21T17:35:17.012Z,6.63
2018-10-21T17:37:46.193Z,6.83
2018-10-21T17:40:15.417Z,6.37
2018-10-21T17:42:44.518Z,7.73
2018-10-21T17:45:14.762Z,6.57
2018-10-21T17:47:44.063Z,7.53
2018-10-21T17:50:14.388Z,6.27
2018-10-21T17:52:44.559Z,6.17
2018-10-21T17:55:13.987Z,6.40
2018-10-21T17:57:43.283Z,7.90
2018-10-21T18:00:13.373Z,7.63
2018-10-21T18:02:42.151Z,11.17
2018-10-21T18:05:13.697Z,13.00
2018-10-21T18:07:43.186Z,11.80
2018-10-21T18:10:12.959Z,10.20
2018-10-21T18:12:41.985Z,12.33
2018-10-21T18:15:11.879Z,13.50
2018-10-21T18:17:41.577Z,13.53
2018-10-21T18:20:12.162Z,13.70
2018-10-21T18:22:41.277Z,8.50
2018-10-21T18:25:11.017Z,9.40
2018-10-21T18:27:40.530Z,9.17
2018-10-21T18:30:11.170Z,8.40
2018-10-21T18:32:40.919Z,9.10
2018-10-21T18:35:12.659Z,9.40
2018-10-21T18:37:41.912Z,6.93
2018-10-21T18:40:11.865Z,6.53
2018-10-21T18:42:41.260Z,6.77
2018-10-21T18:45:12.725Z,6.10
2018-10-21T18:47:42.425Z,4.93
2018-10-21T18:50:13.283Z,6.53
2018-10-21T18:52:42.429Z,5.60
2018-10-21T18:55:12.645Z,5.10
2018-10-21T18:57:42.580Z,6.67
2018-10-21T19:00:15.078Z,6.33
2018-10-21T19:02:44.273Z,5.90
2018-10-21T19:05:14.058Z,5.60
2018-10-21T19:07:43.577Z,5.30
2018-10-21T19:10:14.122Z,5.73
2018-10-21T19:12:43.645Z,7.77
2018-10-21T19:15:14.721Z,6.60
2018-10-21T19:17:44.478Z,5.40
2018-10-21T19:20:16.067Z,6.00
2018-10-21T19:22:45.202Z,5.27
2018-10-21T19:25:15.988Z,5.83
2018-10-21T19:27:45.674Z,6.30
2018-10-21T19:30:15.989Z,5.83
2018-10-21T19:32:45.188Z,6.90
2018-10-21T19:35:15.849Z,5.73
2018-10-21T19:37:44.990Z,7.30
2018-10-21T19:40:15.504Z,7.20
2018-10-21T19:42:45.467Z,8.37
2018-10-21T19:45:15.221Z,8.33
2018-10-21T19:47:44.407Z,9.00
2018-10-21T19:50:15.423Z,8.03
2018-10-21T19:52:44.925Z,9.40
2018-10-21T19:55:14.535Z,9.40
2018-10-21T19:57:44.693Z,9.53
2018-10-21T20:00:16.295Z,8.17
2018-10-21T20:02:45.989Z,8.93
2018-10-21T20:05:14.913Z,7.70
2018-10-21T20:07:44.086Z,7.80
2018-10-21T20:10:14.529Z,8.50
2018-10-21T20:12:43.592Z,10.53
2018-10-21T20:15:13.518Z,8.70
2018-10-21T20:17:42.785Z,11.07
2018-10-21T20:20:12.600Z,10.37
2018-10-21T20:22:42.329Z,10.20
2018-10-21T20:25:12.322Z,11.20
2018-10-21T20:27:41.361Z,11.10
2018-10-21T20:30:12.444Z,10.40
2018-10-21T20:32:41.881Z,11.63
2018-10-21T20:35:12.317Z,11.10
2018-10-21T20:37:41.473Z,11.80
2018-10-21T20:40:12.497Z,12.70
2018-10-21T20:42:41.533Z,12.93
2018-10-21T20:45:11.981Z,10.53
2018-10-21T20:47:41.105Z,10.60
2018-10-21T20:50:10.976Z,12.40
2018-10-21T20:52:40.169Z,11.90
2018-10-21T20:55:09.825Z,13.70
2018-10-21T20:57:38.685Z,12.10
2018-10-21T21:00:07.893Z,10.77
2018-10-21T21:02:37.441Z,11.87
2018-10-21T21:05:08.978Z,12.33
2018-10-21T21:07:39.185Z,10.50
2018-10-21T21:10:09.310Z,10.50
2018-10-21T21:12:38.426Z,10.70
2018-10-21T21:15:08.354Z,9.57
2018-10-21T21:17:38.261Z,9.83
2018-10-21T21:20:08.423Z,10.20
2018-10-21T21:22:38.288Z,9.30
2018-10-21T21:25:07.873Z,9.57
2018-10-21T21:27:37.174Z,8.00
2018-10-21T21:30:07.633Z,9.20
2018-10-21T21:32:37.761Z,9.73
2018-10-21T21:35:07.806Z,9.20
2018-10-21T21:37:36.895Z,10.07
2018-10-21T21:40:08.339Z,10.07
2018-10-21T21:42:38.585Z,9.47
2018-10-21T21:45:08.959Z,10.47
2018-10-21T21:47:39.562Z,9.90
2018-10-21T21:50:09.543Z,10.87
2018-10-21T21:52:39.537Z,11.90
2018-10-21T21:55:08.865Z,9.53
2018-10-21T21:57:37.715Z,10.40
2018-10-21T22:00:11.067Z,10.33
2018-10-21T22:02:40.329Z,11.07
2018-10-21T22:05:10.595Z,10.87
2018-10-21T22:07:41.197Z,9.90
2018-10-21T22:10:13.556Z,12.40
2018-10-21T22:12:43.622Z,12.20
2018-10-21T22:15:12.962Z,11.60
2018-10-21T22:17:42.638Z,11.67
2018-10-21T22:20:12.824Z,12.20
2018-10-21T22:22:42.306Z,10.80
2018-10-21T22:25:12.052Z,11.10
2018-10-21T22:27:41.951Z,11.73
2018-10-21T22:30:11.621Z,12.23
2018-10-21T22:32:40.972Z,10.73
2018-10-21T22:35:10.398Z,9.50
2018-10-21T22:37:39.509Z,11.50
2018-10-21T22:40:08.694Z,10.17
2018-10-21T22:42:38.177Z,10.40
2018-10-21T22:45:08.588Z,11.67
2018-10-21T22:47:37.774Z,11.10
2018-10-21T22:50:09.719Z,10.73
2018-10-21T22:52:38.882Z,11.40
2018-10-21T22:55:09.121Z,11.43
2018-10-21T22:57:38.411Z,11.10
2018-10-21T23:00:09.195Z,10.87
2018-10-21T23:02:38.386Z,12.70
2018-10-21T23:05:08.267Z,13.80
2018-10-21T23:07:38.166Z,11.27
2018-10-21T23:10:07.376Z,12.70
2018-10-21T23:12:36.818Z,11.60
2018-10-21T23:15:06.706Z,10.93
2018-10-21T23:17:36.470Z,10.63
2018-10-21T23:20:07.290Z,11.50
2018-10-21T23:22:36.818Z,12.60
2018-10-21T23:25:07.523Z,11.50
2018-10-21T23:27:36.637Z,12.23
2018-10-21T23:30:07.063Z,12.70
2018-10-21T23:32:36.441Z,12.87
2018-10-21T23:35:06.103Z,10.67
2018-10-21T23:37:35.351Z,14.00
2018-10-21T23:40:04.822Z,12.43
2018-10-21T23:42:33.913Z,11.70
2018-10-21T23:45:03.047Z,14.30
2018-10-21T23:47:32.182Z,12.20
2018-10-21T23:50:01.823Z,12.67
2018-10-21T23:52:30.926Z,12.33
2018-10-21T23:55:00.030Z,13.23
2018-10-21T23:57:29.604Z,12.30
2018-10-21T23:59:58.753Z,10.60
